sensor_id;sensor_type;location;lat;lon;timestamp;P1;durP1;ratioP1;P2;durP2;ratioP2
61473;SDS011;53694;49.784;30.150;2023-03-01T00:00:34;17.39;;;8.09;;
61473;SDS011;53694;49.784;30.150;2023-03-01T00:01:35;16.80;;;8.24;;
61473;SDS011;53694;49.784;30.150;2023-03-01T00:02:37;16.10;;;7.24;;
61473;SDS011;53694;49.784;30.150;2023-03-01T00:03:38;20.42;;;8.50;;
61473;SDS011;53694;49.784;30.150;2023-03-01T00:04:40;18.21;;;8.59;;
61473;SDS011;53694;49.784;30.150;2023-03-01T00:05:45;16.27;;;8.22;;
61473;SDS011;53694;49.784;30.150;2023-03-01T00:06:47;16.06;;;7.11;;
61473;SDS011;53694;49.784;30.150;2023-03-01T00:07:52;16.42;;;7.44;;
61473;SDS011;53694;49.784;30.150;2023-03-01T00:08:55;11.07;;;6.18;;
61473;SDS011;53694;49.784;30.150;2023-03-01T00:09:57;14.59;;;6.79;;
61473;SDS011;53694;49.784;30.150;2023-03-01T00:12:07;14.29;;;6.51;;
61473;SDS011;53694;49.784;30.150;2023-03-01T00:13:08;14.15;;;6.54;;
61473;SDS011;53694;49.784;30.150;2023-03-01T00:14:10;12.84;;;6.74;;
61473;SDS011;53694;49.784;30.150;2023-03-01T00:15:11;13.45;;;7.13;;
61473;SDS011;53694;49.784;30.150;2023-03-01T00:16:15;14.63;;;7.65;;
61473;SDS011;53694;49.784;30.150;2023-03-01T00:17:18;15.74;;;7.48;;
61473;SDS011;53694;49.784;30.150;2023-03-01T00:18:20;16.04;;;7.66;;
61473;SDS011;53694;49.784;30.150;2023-03-01T00:19:21;19.61;;;8.91;;
61473;SDS011;53694;49.784;30.150;2023-03-01T00:20:23;16.12;;;8.68;;
61473;SDS011;53694;49.784;30.150;2023-03-01T00:21:25;20.31;;;9.51;;
61473;SDS011;53694;49.784;30.150;2023-03-01T00:22:27;33.20;;;14.99;;
61473;SDS011;53694;49.784;30.150;2023-03-01T00:23:29;19.45;;;9.50;;
61473;SDS011;53694;49.784;30.150;2023-03-01T00:24:30;19.21;;;8.99;;
61473;SDS011;53694;49.784;30.150;2023-03-01T00:25:32;19.04;;;8.66;;
61473;SDS011;53694;49.784;30.150;2023-03-01T00:26:34;15.66;;;8.01;;
61473;SDS011;53694;49.784;30.150;2023-03-01T00:27:35;17.83;;;8.46;;
61473;SDS011;53694;49.784;30.150;2023-03-01T00:28:37;18.52;;;7.69;;
61473;SDS011;53694;49.784;30.150;2023-03-01T00:29:38;11.72;;;6.74;;
61473;SDS011;53694;49.784;30.150;2023-03-01T00:30:40;19.53;;;7.42;;
61473;SDS011;53694;49.784;30.150;2023-03-01T00:31:41;16.71;;;7.09;;
61473;SDS011;53694;49.784;30.150;2023-03-01T00:32:43;16.46;;;7.04;;
61473;SDS011;53694;49.784;30.150;2023-03-01T00:33:44;13.40;;;6.69;;
61473;SDS011;53694;49.784;30.150;2023-03-01T00:34:46;12.37;;;6.61;;
61473;SDS011;53694;49.784;30.150;2023-03-01T00:35:48;14.88;;;6.66;;
61473;SDS011;53694;49.784;30.150;2023-03-01T00:36:49;13.56;;;7.08;;
61473;SDS011;53694;49.784;30.150;2023-03-01T00:37:51;13.76;;;6.92;;
61473;SDS011;53694;49.784;30.150;2023-03-01T00:38:52;15.05;;;7.71;;
61473;SDS011;53694;49.784;30.150;2023-03-01T00:39:54;17.50;;;8.09;;
61473;SDS011;53694;49.784;30.150;2023-03-01T00:41:02;20.11;;;9.75;;
61473;SDS011;53694;49.784;30.150;2023-03-01T00:42:01;18.89;;;9.42;;
61473;SDS011;53694;49.784;30.150;2023-03-01T00:43:03;17.61;;;9.15;;
61473;SDS011;53694;49.784;30.150;2023-03-01T00:44:05;17.29;;;8.67;;
61473;SDS011;53694;49.784;30.150;2023-03-01T00:45:07;18.44;;;9.64;;
61473;SDS011;53694;49.784;30.150;2023-03-01T00:46:11;28.72;;;12.51;;
61473;SDS011;53694;49.784;30.150;2023-03-01T00:47:14;20.48;;;9.23;;
61473;SDS011;53694;49.784;30.150;2023-03-01T00:48:16;20.78;;;10.31;;
61473;SDS011;53694;49.784;30.150;2023-03-01T00:49:18;18.30;;;8.81;;
61473;SDS011;53694;49.784;30.150;2023-03-01T00:50:20;18.87;;;9.04;;
61473;SDS011;53694;49.784;30.150;2023-03-01T00:51:23;16.47;;;7.70;;
61473;SDS011;53694;49.784;30.150;2023-03-01T00:52:26;23.11;;;10.73;;
61473;SDS011;53694;49.784;30.150;2023-03-01T00:53:28;14.80;;;7.23;;
61473;SDS011;53694;49.784;30.150;2023-03-01T00:54:29;16.35;;;7.60;;
61473;SDS011;53694;49.784;30.150;2023-03-01T00:55:31;24.86;;;10.56;;
61473;SDS011;53694;49.784;30.150;2023-03-01T00:56:32;32.69;;;13.59;;
61473;SDS011;53694;49.784;30.150;2023-03-01T00:57:34;25.98;;;11.80;;
61473;SDS011;53694;49.784;30.150;2023-03-01T00:58:36;19.68;;;9.14;;
61473;SDS011;53694;49.784;30.150;2023-03-01T00:59:38;22.87;;;9.67;;
61473;SDS011;53694;49.784;30.150;2023-03-01T01:00:39;18.56;;;8.99;;
61473;SDS011;53694;49.784;30.150;2023-03-01T01:01:41;18.21;;;9.16;;
61473;SDS011;53694;49.784;30.150;2023-03-01T01:02:43;17.97;;;7.94;;
61473;SDS011;53694;49.784;30.150;2023-03-01T01:03:53;18.57;;;9.65;;
61473;SDS011;53694;49.784;30.150;2023-03-01T01:04:53;19.47;;;10.61;;
61473;SDS011;53694;49.784;30.150;2023-03-01T01:05:54;20.69;;;9.79;;
61473;SDS011;53694;49.784;30.150;2023-03-01T01:06:56;18.64;;;10.00;;
61473;SDS011;53694;49.784;30.150;2023-03-01T01:07:58;17.71;;;9.51;;
61473;SDS011;53694;49.784;30.150;2023-03-01T01:08:59;16.72;;;9.07;;
61473;SDS011;53694;49.784;30.150;2023-03-01T01:10:02;18.67;;;8.06;;
61473;SDS011;53694;49.784;30.150;2023-03-01T01:11:04;14.54;;;7.37;;
61473;SDS011;53694;49.784;30.150;2023-03-01T01:12:06;17.05;;;7.27;;
61473;SDS011;53694;49.784;30.150;2023-03-01T01:13:08;13.38;;;6.97;;
61473;SDS011;53694;49.784;30.150;2023-03-01T01:14:09;15.28;;;7.23;;
61473;SDS011;53694;49.784;30.150;2023-03-01T01:15:11;16.12;;;7.05;;
61473;SDS011;53694;49.784;30.150;2023-03-01T01:16:14;15.04;;;6.86;;
61473;SDS011;53694;49.784;30.150;2023-03-01T01:17:17;14.91;;;7.44;;
61473;SDS011;53694;49.784;30.150;2023-03-01T01:18:18;15.56;;;7.08;;
61473;SDS011;53694;49.784;30.150;2023-03-01T01:19:20;26.85;;;10.76;;
61473;SDS011;53694;49.784;30.150;2023-03-01T01:20:22;24.27;;;9.69;;
61473;SDS011;53694;49.784;30.150;2023-03-01T01:21:23;17.56;;;8.85;;
61473;SDS011;53694;49.784;30.150;2023-03-01T01:22:26;37.41;;;14.89;;
61473;SDS011;53694;49.784;30.150;2023-03-01T01:23:27;24.64;;;11.09;;
61473;SDS011;53694;49.784;30.150;2023-03-01T01:24:29;34.06;;;15.30;;
61473;SDS011;53694;49.784;30.150;2023-03-01T01:25:30;21.63;;;9.46;;
61473;SDS011;53694;49.784;30.150;2023-03-01T01:26:35;20.26;;;9.54;;
61473;SDS011;53694;49.784;30.150;2023-03-01T01:27:37;25.77;;;12.86;;
61473;SDS011;53694;49.784;30.150;2023-03-01T01:28:39;21.88;;;10.43;;
61473;SDS011;53694;49.784;30.150;2023-03-01T01:29:40;41.04;;;15.35;;
61473;SDS011;53694;49.784;30.150;2023-03-01T01:30:42;39.86;;;15.39;;
61473;SDS011;53694;49.784;30.150;2023-03-01T01:31:44;19.06;;;8.16;;
61473;SDS011;53694;49.784;30.150;2023-03-01T01:32:45;13.24;;;7.23;;
61473;SDS011;53694;49.784;30.150;2023-03-01T01:33:47;17.14;;;7.33;;
61473;SDS011;53694;49.784;30.150;2023-03-01T01:34:48;15.76;;;6.26;;
61473;SDS011;53694;49.784;30.150;2023-03-01T01:35:50;14.50;;;6.36;;
61473;SDS011;53694;49.784;30.150;2023-03-01T01:36:52;13.71;;;6.55;;
61473;SDS011;53694;49.784;30.150;2023-03-01T01:37:54;13.97;;;6.71;;
61473;SDS011;53694;49.784;30.150;2023-03-01T01:38:56;14.76;;;6.96;;
61473;SDS011;53694;49.784;30.150;2023-03-01T01:39:58;14.38;;;7.09;;
61473;SDS011;53694;49.784;30.150;2023-03-01T01:41:00;15.89;;;7.89;;
61473;SDS011;53694;49.784;30.150;2023-03-01T01:42:02;13.76;;;7.41;;
61473;SDS011;53694;49.784;30.150;2023-03-01T01:43:04;15.67;;;7.20;;
61473;SDS011;53694;49.784;30.150;2023-03-01T01:44:13;21.54;;;9.59;;
61473;SDS011;53694;49.784;30.150;2023-03-01T01:45:47;17.97;;;8.10;;
61473;SDS011;53694;49.784;30.150;2023-03-01T01:46:31;18.87;;;9.19;;
61473;SDS011;53694;49.784;30.150;2023-03-01T01:47:36;18.52;;;9.23;;
61473;SDS011;53694;49.784;30.150;2023-03-01T01:48:42;22.65;;;9.87;;
61473;SDS011;53694;49.784;30.150;2023-03-01T01:49:47;24.90;;;10.35;;
61473;SDS011;53694;49.784;30.150;2023-03-01T01:50:56;18.97;;;9.72;;
61473;SDS011;53694;49.784;30.150;2023-03-01T01:52:00;16.32;;;8.16;;
61473;SDS011;53694;49.784;30.150;2023-03-01T01:53:05;23.23;;;9.71;;
61473;SDS011;53694;49.784;30.150;2023-03-01T01:54:14;12.84;;;6.74;;
61473;SDS011;53694;49.784;30.150;2023-03-01T01:55:27;28.32;;;11.57;;
61473;SDS011;53694;49.784;30.150;2023-03-01T01:56:29;17.13;;;7.93;;
61473;SDS011;53694;49.784;30.150;2023-03-01T01:57:36;14.56;;;7.50;;
61473;SDS011;53694;49.784;30.150;2023-03-01T01:58:48;19.01;;;8.86;;
61473;SDS011;53694;49.784;30.150;2023-03-01T01:59:53;12.63;;;6.42;;
61473;SDS011;53694;49.784;30.150;2023-03-01T02:00:56;12.73;;;6.98;;
61473;SDS011;53694;49.784;30.150;2023-03-01T02:01:59;17.14;;;8.51;;
61473;SDS011;53694;49.784;30.150;2023-03-01T02:03:04;14.22;;;7.53;;
61473;SDS011;53694;49.784;30.150;2023-03-01T02:04:11;14.75;;;7.77;;
61473;SDS011;53694;49.784;30.150;2023-03-01T02:06:24;14.64;;;7.73;;
61473;SDS011;53694;49.784;30.150;2023-03-01T02:07:36;16.70;;;7.79;;
61473;SDS011;53694;49.784;30.150;2023-03-01T02:08:40;19.41;;;8.86;;
61473;SDS011;53694;49.784;30.150;2023-03-01T02:09:45;15.01;;;7.72;;
61473;SDS011;53694;49.784;30.150;2023-03-01T02:10:48;18.77;;;8.43;;
61473;SDS011;53694;49.784;30.150;2023-03-01T02:11:51;18.78;;;9.22;;
61473;SDS011;53694;49.784;30.150;2023-03-01T02:12:54;17.18;;;7.92;;
61473;SDS011;53694;49.784;30.150;2023-03-01T02:13:56;13.07;;;6.36;;
61473;SDS011;53694;49.784;30.150;2023-03-01T02:14:58;12.31;;;6.73;;
61473;SDS011;53694;49.784;30.150;2023-03-01T02:16:02;14.36;;;6.11;;
61473;SDS011;53694;49.784;30.150;2023-03-01T02:17:07;14.09;;;6.34;;
61473;SDS011;53694;49.784;30.150;2023-03-01T02:18:11;14.16;;;6.78;;
61473;SDS011;53694;49.784;30.150;2023-03-01T02:19:20;14.32;;;6.71;;
61473;SDS011;53694;49.784;30.150;2023-03-01T02:20:34;10.90;;;5.89;;
61473;SDS011;53694;49.784;30.150;2023-03-01T02:22:52;14.62;;;6.88;;
61473;SDS011;53694;49.784;30.150;2023-03-01T02:23:55;12.30;;;6.99;;
61473;SDS011;53694;49.784;30.150;2023-03-01T02:29:18;13.94;;;7.54;;
61473;SDS011;53694;49.784;30.150;2023-03-01T02:30:20;16.43;;;8.30;;
61473;SDS011;53694;49.784;30.150;2023-03-01T02:31:23;18.82;;;10.40;;
61473;SDS011;53694;49.784;30.150;2023-03-01T02:32:24;17.03;;;8.68;;
61473;SDS011;53694;49.784;30.150;2023-03-01T02:33:27;17.40;;;8.84;;
61473;SDS011;53694;49.784;30.150;2023-03-01T02:34:29;16.51;;;8.31;;
61473;SDS011;53694;49.784;30.150;2023-03-01T02:35:33;17.68;;;7.32;;
61473;SDS011;53694;49.784;30.150;2023-03-01T02:36:38;15.09;;;6.99;;
61473;SDS011;53694;49.784;30.150;2023-03-01T02:37:42;12.64;;;6.60;;
61473;SDS011;53694;49.784;30.150;2023-03-01T02:38:46;15.08;;;6.77;;
61473;SDS011;53694;49.784;30.150;2023-03-01T02:39:49;12.25;;;6.17;;
61473;SDS011;53694;49.784;30.150;2023-03-01T02:40:54;13.61;;;6.53;;
61473;SDS011;53694;49.784;30.150;2023-03-01T02:41:57;12.72;;;6.58;;
61473;SDS011;53694;49.784;30.150;2023-03-01T02:43:00;11.52;;;6.56;;
61473;SDS011;53694;49.784;30.150;2023-03-01T02:44:01;16.26;;;6.74;;
61473;SDS011;53694;49.784;30.150;2023-03-01T02:45:04;14.24;;;6.89;;
61473;SDS011;53694;49.784;30.150;2023-03-01T02:46:08;12.64;;;6.95;;
61473;SDS011;53694;49.784;30.150;2023-03-01T02:47:12;13.33;;;7.24;;
61473;SDS011;53694;49.784;30.150;2023-03-01T02:48:13;14.93;;;7.76;;
61473;SDS011;53694;49.784;30.150;2023-03-01T02:49:19;15.85;;;7.79;;
61473;SDS011;53694;49.784;30.150;2023-03-01T02:50:26;14.28;;;6.97;;
61473;SDS011;53694;49.784;30.150;2023-03-01T02:51:39;15.04;;;7.97;;
61473;SDS011;53694;49.784;30.150;2023-03-01T02:55:18;15.36;;;8.02;;
61473;SDS011;53694;49.784;30.150;2023-03-01T02:56:20;16.41;;;7.88;;
61473;SDS011;53694;49.784;30.150;2023-03-01T02:57:22;16.41;;;7.98;;
61473;SDS011;53694;49.784;30.150;2023-03-01T02:58:26;14.99;;;7.10;;
61473;SDS011;53694;49.784;30.150;2023-03-01T02:59:29;11.29;;;5.87;;
61473;SDS011;53694;49.784;30.150;2023-03-01T03:00:36;13.64;;;6.42;;
61473;SDS011;53694;49.784;30.150;2023-03-01T03:01:41;13.01;;;6.13;;
61473;SDS011;53694;49.784;30.150;2023-03-01T03:02:42;13.48;;;6.42;;
61473;SDS011;53694;49.784;30.150;2023-03-01T03:03:44;11.32;;;5.96;;
61473;SDS011;53694;49.784;30.150;2023-03-01T03:04:46;11.87;;;5.71;;
61473;SDS011;53694;49.784;30.150;2023-03-01T03:05:47;12.58;;;5.97;;
61473;SDS011;53694;49.784;30.150;2023-03-01T03:06:50;11.39;;;5.75;;
61473;SDS011;53694;49.784;30.150;2023-03-01T03:07:52;12.80;;;6.54;;
61473;SDS011;53694;49.784;30.150;2023-03-01T03:08:54;12.73;;;6.58;;
61473;SDS011;53694;49.784;30.150;2023-03-01T03:09:55;14.13;;;7.56;;
61473;SDS011;53694;49.784;30.150;2023-03-01T03:10:57;14.79;;;7.55;;
61473;SDS011;53694;49.784;30.150;2023-03-01T03:11:58;15.34;;;7.56;;
61473;SDS011;53694;49.784;30.150;2023-03-01T03:13:01;14.62;;;7.51;;
61473;SDS011;53694;49.784;30.150;2023-03-01T03:14:08;15.64;;;7.91;;
61473;SDS011;53694;49.784;30.150;2023-03-01T03:15:11;14.51;;;8.60;;
61473;SDS011;53694;49.784;30.150;2023-03-01T03:16:14;19.28;;;8.93;;
61473;SDS011;53694;49.784;30.150;2023-03-01T03:17:16;17.14;;;8.49;;
61473;SDS011;53694;49.784;30.150;2023-03-01T03:18:18;15.57;;;8.19;;
61473;SDS011;53694;49.784;30.150;2023-03-01T03:19:20;11.65;;;6.49;;
61473;SDS011;53694;49.784;30.150;2023-03-01T03:20:22;14.93;;;6.85;;
61473;SDS011;53694;49.784;30.150;2023-03-01T03:21:26;11.54;;;6.31;;
61473;SDS011;53694;49.784;30.150;2023-03-01T03:22:27;12.90;;;6.08;;
61473;SDS011;53694;49.784;30.150;2023-03-01T03:23:28;13.71;;;6.56;;
61473;SDS011;53694;49.784;30.150;2023-03-01T03:24:30;11.36;;;5.84;;
61473;SDS011;53694;49.784;30.150;2023-03-01T03:25:32;12.13;;;6.06;;
61473;SDS011;53694;49.784;30.150;2023-03-01T03:26:33;14.03;;;6.87;;
61473;SDS011;53694;49.784;30.150;2023-03-01T03:27:40;14.07;;;6.15;;
61473;SDS011;53694;49.784;30.150;2023-03-01T03:28:39;12.79;;;6.93;;
61473;SDS011;53694;49.784;30.150;2023-03-01T03:29:40;13.69;;;7.37;;
61473;SDS011;53694;49.784;30.150;2023-03-01T03:30:42;15.18;;;8.26;;
61473;SDS011;53694;49.784;30.150;2023-03-01T03:31:44;15.84;;;7.58;;
61473;SDS011;53694;49.784;30.150;2023-03-01T03:32:46;16.34;;;8.22;;
61473;SDS011;53694;49.784;30.150;2023-03-01T03:33:48;15.48;;;7.56;;
61473;SDS011;53694;49.784;30.150;2023-03-01T03:34:50;16.20;;;8.61;;
61473;SDS011;53694;49.784;30.150;2023-03-01T03:35:51;17.01;;;9.26;;
61473;SDS011;53694;49.784;30.150;2023-03-01T03:36:53;18.78;;;9.14;;
61473;SDS011;53694;49.784;30.150;2023-03-01T03:37:55;19.95;;;10.24;;
61473;SDS011;53694;49.784;30.150;2023-03-01T03:38:58;18.40;;;8.16;;
61473;SDS011;53694;49.784;30.150;2023-03-01T03:40:00;12.67;;;6.71;;
61473;SDS011;53694;49.784;30.150;2023-03-01T03:41:02;16.39;;;6.84;;
61473;SDS011;53694;49.784;30.150;2023-03-01T03:42:05;14.96;;;6.71;;
61473;SDS011;53694;49.784;30.150;2023-03-01T03:43:08;15.79;;;6.89;;
61473;SDS011;53694;49.784;30.150;2023-03-01T03:44:12;12.41;;;6.16;;
61473;SDS011;53694;49.784;30.150;2023-03-01T03:45:14;14.64;;;6.60;;
61473;SDS011;53694;49.784;30.150;2023-03-01T03:46:16;14.47;;;6.51;;
61473;SDS011;53694;49.784;30.150;2023-03-01T03:47:18;10.73;;;6.16;;
61473;SDS011;53694;49.784;30.150;2023-03-01T03:48:19;14.25;;;7.01;;
61473;SDS011;53694;49.784;30.150;2023-03-01T03:49:22;14.45;;;6.87;;
61473;SDS011;53694;49.784;30.150;2023-03-01T03:50:23;16.71;;;7.59;;
61473;SDS011;53694;49.784;30.150;2023-03-01T03:51:25;13.98;;;7.49;;
61473;SDS011;53694;49.784;30.150;2023-03-01T03:52:26;16.12;;;8.53;;
61473;SDS011;53694;49.784;30.150;2023-03-01T03:53:28;17.24;;;9.03;;
61473;SDS011;53694;49.784;30.150;2023-03-01T03:54:30;18.93;;;9.04;;
61473;SDS011;53694;49.784;30.150;2023-03-01T03:55:32;20.69;;;10.06;;
61473;SDS011;53694;49.784;30.150;2023-03-01T03:56:34;21.39;;;10.45;;
61473;SDS011;53694;49.784;30.150;2023-03-01T03:57:38;19.29;;;10.05;;
61473;SDS011;53694;49.784;30.150;2023-03-01T03:58:41;19.52;;;9.68;;
61473;SDS011;53694;49.784;30.150;2023-03-01T03:59:43;20.99;;;9.79;;
61473;SDS011;53694;49.784;30.150;2023-03-01T04:00:45;19.64;;;9.20;;
61473;SDS011;53694;49.784;30.150;2023-03-01T04:01:48;16.08;;;8.38;;
61473;SDS011;53694;49.784;30.150;2023-03-01T04:02:50;20.56;;;8.27;;
61473;SDS011;53694;49.784;30.150;2023-03-01T04:03:52;15.67;;;7.67;;
61473;SDS011;53694;49.784;30.150;2023-03-01T04:04:53;14.44;;;7.32;;
61473;SDS011;53694;49.784;30.150;2023-03-01T04:05:56;14.42;;;6.81;;
61473;SDS011;53694;49.784;30.150;2023-03-01T04:06:59;14.08;;;8.03;;
61473;SDS011;53694;49.784;30.150;2023-03-01T04:08:01;12.88;;;7.18;;
61473;SDS011;53694;49.784;30.150;2023-03-01T04:09:03;13.73;;;7.17;;
61473;SDS011;53694;49.784;30.150;2023-03-01T04:10:05;14.61;;;7.14;;
61473;SDS011;53694;49.784;30.150;2023-03-01T04:11:12;17.42;;;8.18;;
61473;SDS011;53694;49.784;30.150;2023-03-01T04:12:14;15.04;;;7.26;;
61473;SDS011;53694;49.784;30.150;2023-03-01T04:13:17;15.44;;;7.84;;
61473;SDS011;53694;49.784;30.150;2023-03-01T04:14:21;14.64;;;7.58;;
61473;SDS011;53694;49.784;30.150;2023-03-01T04:15:23;15.68;;;7.94;;
61473;SDS011;53694;49.784;30.150;2023-03-01T04:16:26;16.84;;;8.74;;
61473;SDS011;53694;49.784;30.150;2023-03-01T04:17:28;19.08;;;8.98;;
61473;SDS011;53694;49.784;30.150;2023-03-01T04:18:29;17.74;;;8.86;;
61473;SDS011;53694;49.784;30.150;2023-03-01T04:19:31;20.77;;;9.96;;
61473;SDS011;53694;49.784;30.150;2023-03-01T04:20:34;19.05;;;9.92;;
61473;SDS011;53694;49.784;30.150;2023-03-01T04:21:36;19.17;;;10.19;;
61473;SDS011;53694;49.784;30.150;2023-03-01T04:22:38;16.87;;;8.30;;
61473;SDS011;53694;49.784;30.150;2023-03-01T04:23:41;16.96;;;7.78;;
61473;SDS011;53694;49.784;30.150;2023-03-01T04:24:42;12.58;;;6.78;;
61473;SDS011;53694;49.784;30.150;2023-03-01T04:25:49;14.03;;;7.11;;
61473;SDS011;53694;49.784;30.150;2023-03-01T04:26:49;13.39;;;6.78;;
61473;SDS011;53694;49.784;30.150;2023-03-01T04:27:51;13.69;;;6.71;;
61473;SDS011;53694;49.784;30.150;2023-03-01T04:28:53;14.15;;;6.48;;
61473;SDS011;53694;49.784;30.150;2023-03-01T04:29:55;11.33;;;5.68;;
61473;SDS011;53694;49.784;30.150;2023-03-01T04:30:57;14.89;;;7.23;;
61473;SDS011;53694;49.784;30.150;2023-03-01T04:31:59;13.73;;;6.96;;
61473;SDS011;53694;49.784;30.150;2023-03-01T04:33:06;15.10;;;8.01;;
61473;SDS011;53694;49.784;30.150;2023-03-01T04:34:05;14.64;;;7.27;;
61473;SDS011;53694;49.784;30.150;2023-03-01T04:35:07;16.18;;;8.31;;
61473;SDS011;53694;49.784;30.150;2023-03-01T04:36:10;19.18;;;9.18;;
61473;SDS011;53694;49.784;30.150;2023-03-01T04:37:13;18.12;;;8.95;;
61473;SDS011;53694;49.784;30.150;2023-03-01T04:38:14;18.39;;;9.16;;
61473;SDS011;53694;49.784;30.150;2023-03-01T04:39:17;19.99;;;8.88;;
61473;SDS011;53694;49.784;30.150;2023-03-01T04:40:19;17.52;;;9.53;;
61473;SDS011;53694;49.784;30.150;2023-03-01T04:41:22;18.94;;;9.54;;
61473;SDS011;53694;49.784;30.150;2023-03-01T04:42:25;17.92;;;8.98;;
61473;SDS011;53694;49.784;30.150;2023-03-01T04:43:26;14.69;;;7.57;;
61473;SDS011;53694;49.784;30.150;2023-03-01T04:44:27;13.66;;;7.21;;
61473;SDS011;53694;49.784;30.150;2023-03-01T04:45:29;13.89;;;6.94;;
61473;SDS011;53694;49.784;30.150;2023-03-01T04:46:31;15.69;;;7.31;;
61473;SDS011;53694;49.784;30.150;2023-03-01T04:47:32;14.15;;;7.29;;
61473;SDS011;53694;49.784;30.150;2023-03-01T04:48:39;14.76;;;7.11;;
61473;SDS011;53694;49.784;30.150;2023-03-01T04:49:38;15.69;;;7.44;;
61473;SDS011;53694;49.784;30.150;2023-03-01T04:50:40;13.86;;;6.36;;
61473;SDS011;53694;49.784;30.150;2023-03-01T04:51:41;14.31;;;6.50;;
61473;SDS011;53694;49.784;30.150;2023-03-01T04:52:43;18.06;;;7.77;;
61473;SDS011;53694;49.784;30.150;2023-03-01T04:53:45;14.60;;;8.09;;
61473;SDS011;53694;49.784;30.150;2023-03-01T04:54:46;23.31;;;11.05;;
61473;SDS011;53694;49.784;30.150;2023-03-01T04:55:48;21.00;;;10.14;;
61473;SDS011;53694;49.784;30.150;2023-03-01T04:56:49;18.75;;;8.99;;
61473;SDS011;53694;49.784;30.150;2023-03-01T04:57:51;17.14;;;8.79;;
61473;SDS011;53694;49.784;30.150;2023-03-01T04:58:53;17.35;;;9.53;;
61473;SDS011;53694;49.784;30.150;2023-03-01T04:59:55;18.64;;;8.69;;
61473;SDS011;53694;49.784;30.150;2023-03-01T05:00:57;19.23;;;9.31;;
61473;SDS011;53694;49.784;30.150;2023-03-01T05:01:58;21.31;;;10.12;;
61473;SDS011;53694;49.784;30.150;2023-03-01T05:03:00;19.13;;;9.43;;
61473;SDS011;53694;49.784;30.150;2023-03-01T05:04:02;15.50;;;7.55;;
61473;SDS011;53694;49.784;30.150;2023-03-01T05:05:04;14.73;;;7.06;;
61473;SDS011;53694;49.784;30.150;2023-03-01T05:06:06;16.53;;;7.39;;
61473;SDS011;53694;49.784;30.150;2023-03-01T05:07:08;12.54;;;6.72;;
61473;SDS011;53694;49.784;30.150;2023-03-01T05:08:09;15.26;;;6.61;;
61473;SDS011;53694;49.784;30.150;2023-03-01T05:09:11;12.64;;;6.79;;
61473;SDS011;53694;49.784;30.150;2023-03-01T05:10:12;12.09;;;6.70;;
61473;SDS011;53694;49.784;30.150;2023-03-01T05:11:14;15.48;;;7.04;;
61473;SDS011;53694;49.784;30.150;2023-03-01T05:12:15;15.56;;;7.06;;
61473;SDS011;53694;49.784;30.150;2023-03-01T05:13:17;16.34;;;8.02;;
61473;SDS011;53694;49.784;30.150;2023-03-01T05:14:21;15.94;;;8.61;;
61473;SDS011;53694;49.784;30.150;2023-03-01T05:15:23;15.09;;;8.63;;
61473;SDS011;53694;49.784;30.150;2023-03-01T05:16:25;17.39;;;9.28;;
61473;SDS011;53694;49.784;30.150;2023-03-01T05:17:27;19.67;;;10.27;;
61473;SDS011;53694;49.784;30.150;2023-03-01T05:18:29;22.34;;;9.96;;
61473;SDS011;53694;49.784;30.150;2023-03-01T05:19:33;19.42;;;10.86;;
61473;SDS011;53694;49.784;30.150;2023-03-01T05:20:35;18.51;;;9.85;;
61473;SDS011;53694;49.784;30.150;2023-03-01T05:21:37;19.33;;;9.99;;
61473;SDS011;53694;49.784;30.150;2023-03-01T05:22:39;19.91;;;9.98;;
61473;SDS011;53694;49.784;30.150;2023-03-01T05:23:41;18.04;;;9.58;;
61473;SDS011;53694;49.784;30.150;2023-03-01T05:24:43;17.40;;;7.99;;
61473;SDS011;53694;49.784;30.150;2023-03-01T05:25:44;19.99;;;9.55;;
61473;SDS011;53694;49.784;30.150;2023-03-01T05:26:46;16.35;;;8.59;;
61473;SDS011;53694;49.784;30.150;2023-03-01T05:27:47;17.06;;;7.45;;
61473;SDS011;53694;49.784;30.150;2023-03-01T05:28:49;16.43;;;7.19;;
61473;SDS011;53694;49.784;30.150;2023-03-01T05:29:50;15.58;;;7.28;;
61473;SDS011;53694;49.784;30.150;2023-03-01T05:30:52;16.12;;;8.01;;
61473;SDS011;53694;49.784;30.150;2023-03-01T05:31:54;16.78;;;8.07;;
61473;SDS011;53694;49.784;30.150;2023-03-01T05:32:57;17.54;;;8.31;;
61473;SDS011;53694;49.784;30.150;2023-03-01T05:33:59;15.34;;;7.74;;
61473;SDS011;53694;49.784;30.150;2023-03-01T05:35:00;17.06;;;8.82;;
61473;SDS011;53694;49.784;30.150;2023-03-01T05:36:02;16.19;;;9.41;;
61473;SDS011;53694;49.784;30.150;2023-03-01T05:37:04;17.96;;;9.39;;
61473;SDS011;53694;49.784;30.150;2023-03-01T05:38:05;18.59;;;10.03;;
61473;SDS011;53694;49.784;30.150;2023-03-01T05:39:07;22.25;;;10.19;;
61473;SDS011;53694;49.784;30.150;2023-03-01T05:40:10;20.63;;;10.87;;
61473;SDS011;53694;49.784;30.150;2023-03-01T05:41:14;21.28;;;11.41;;
61473;SDS011;53694;49.784;30.150;2023-03-01T05:42:16;20.42;;;11.15;;
61473;SDS011;53694;49.784;30.150;2023-03-01T05:43:18;19.90;;;10.41;;
61473;SDS011;53694;49.784;30.150;2023-03-01T05:44:19;20.24;;;10.68;;
61473;SDS011;53694;49.784;30.150;2023-03-01T05:45:22;16.99;;;8.63;;
61473;SDS011;53694;49.784;30.150;2023-03-01T05:46:26;15.15;;;8.57;;
61473;SDS011;53694;49.784;30.150;2023-03-01T05:47:27;16.63;;;8.19;;
61473;SDS011;53694;49.784;30.150;2023-03-01T05:48:29;17.83;;;8.19;;
61473;SDS011;53694;49.784;30.150;2023-03-01T05:49:31;19.57;;;9.46;;
61473;SDS011;53694;49.784;30.150;2023-03-01T05:50:34;17.61;;;8.08;;
61473;SDS011;53694;49.784;30.150;2023-03-01T05:51:37;16.39;;;7.71;;
61473;SDS011;53694;49.784;30.150;2023-03-01T05:52:38;16.94;;;8.22;;
61473;SDS011;53694;49.784;30.150;2023-03-01T05:53:40;13.81;;;8.02;;
61473;SDS011;53694;49.784;30.150;2023-03-01T05:54:41;14.92;;;7.95;;
61473;SDS011;53694;49.784;30.150;2023-03-01T05:55:43;20.13;;;9.73;;
61473;SDS011;53694;49.784;30.150;2023-03-01T05:56:45;20.03;;;9.38;;
61473;SDS011;53694;49.784;30.150;2023-03-01T05:57:46;18.44;;;9.64;;
61473;SDS011;53694;49.784;30.150;2023-03-01T05:58:48;22.35;;;11.02;;
61473;SDS011;53694;49.784;30.150;2023-03-01T05:59:50;22.18;;;10.51;;
61473;SDS011;53694;49.784;30.150;2023-03-01T06:00:51;17.84;;;9.88;;
61473;SDS011;53694;49.784;30.150;2023-03-01T06:01:53;19.94;;;11.17;;
61473;SDS011;53694;49.784;30.150;2023-03-01T06:02:56;21.38;;;10.83;;
61473;SDS011;53694;49.784;30.150;2023-03-01T06:03:58;24.25;;;11.53;;
61473;SDS011;53694;49.784;30.150;2023-03-01T06:05:00;23.37;;;11.16;;
61473;SDS011;53694;49.784;30.150;2023-03-01T06:06:02;20.48;;;9.37;;
61473;SDS011;53694;49.784;30.150;2023-03-01T06:07:03;16.91;;;9.32;;
61473;SDS011;53694;49.784;30.150;2023-03-01T06:08:05;19.46;;;8.81;;
61473;SDS011;53694;49.784;30.150;2023-03-01T06:09:07;18.42;;;8.29;;
61473;SDS011;53694;49.784;30.150;2023-03-01T06:10:09;17.21;;;8.07;;
61473;SDS011;53694;49.784;30.150;2023-03-01T06:11:12;16.73;;;8.49;;
61473;SDS011;53694;49.784;30.150;2023-03-01T06:12:13;16.36;;;8.54;;
61473;SDS011;53694;49.784;30.150;2023-03-01T06:13:15;18.14;;;8.86;;
61473;SDS011;53694;49.784;30.150;2023-03-01T06:14:16;20.49;;;9.75;;
61473;SDS011;53694;49.784;30.150;2023-03-01T06:15:18;18.91;;;8.66;;
61473;SDS011;53694;49.784;30.150;2023-03-01T06:16:21;18.62;;;9.28;;